createdAt,value
2023-10-14T00:00:46.780Z,0.00
2023-10-14T00:01:46.790Z,0.00
2023-10-14T00:02:46.768Z,0.00
2023-10-14T00:03:46.811Z,0.00
2023-10-14T00:04:46.830Z,0.00
2023-10-14T00:05:46.694Z,0.00
2023-10-14T00:06:46.735Z,0.00
2023-10-14T00:07:46.677Z,0.00
2023-10-14T00:08:46.665Z,0.00
2023-10-14T00:09:46.683Z,0.00
2023-10-14T00:10:46.683Z,0.00
2023-10-14T00:11:46.661Z,0.00
2023-10-14T00:12:46.682Z,0.00
2023-10-14T00:13:46.605Z,0.00
2023-10-14T00:14:46.644Z,0.00
2023-10-14T00:15:46.597Z,0.00
2023-10-14T00:16:46.648Z,0.00
2023-10-14T00:17:46.603Z,0.00
2023-10-14T00:18:46.583Z,0.00
2023-10-14T00:19:46.557Z,0.00
2023-10-14T00:20:46.540Z,0.00
2023-10-14T00:21:46.587Z,0.00
2023-10-14T00:22:46.520Z,0.00
2023-10-14T00:23:46.555Z,0.00
2023-10-14T00:24:46.562Z,0.00
2023-10-14T00:25:46.496Z,0.00
2023-10-14T00:26:46.481Z,0.00
2023-10-14T00:27:46.533Z,0.00
2023-10-14T00:28:46.457Z,0.00
2023-10-14T00:29:46.448Z,0.00
2023-10-14T00:30:46.453Z,0.00
2023-10-14T00:31:46.538Z,0.00
2023-10-14T00:32:46.476Z,0.00
2023-10-14T00:33:46.487Z,0.00
2023-10-14T00:34:46.411Z,0.00
2023-10-14T00:35:46.387Z,0.00
2023-10-14T00:36:46.404Z,0.00
2023-10-14T00:37:46.369Z,0.00
2023-10-14T00:38:46.377Z,0.00
2023-10-14T00:39:46.397Z,0.00
2023-10-14T00:40:46.338Z,0.00
2023-10-14T00:41:46.352Z,0.00
2023-10-14T00:42:46.367Z,0.00
2023-10-14T00:43:46.306Z,0.00
2023-10-14T00:44:46.294Z,0.00
2023-10-14T00:45:46.487Z,0.00
2023-10-14T00:46:46.317Z,0.00
2023-10-14T00:47:46.357Z,0.00
2023-10-14T00:48:46.293Z,0.00
2023-10-14T00:49:46.244Z,0.00
2023-10-14T00:50:46.237Z,0.00
2023-10-14T00:51:46.239Z,0.00
2023-10-14T00:52:46.211Z,0.00
2023-10-14T00:53:46.206Z,0.00
2023-10-14T00:54:46.242Z,0.00
2023-10-14T00:55:46.185Z,0.00
2023-10-14T00:56:46.193Z,0.00
2023-10-14T00:57:46.195Z,0.00
2023-10-14T00:58:46.149Z,0.00
2023-10-14T00:59:46.155Z,0.00
2023-10-14T01:00:46.138Z,0.00
2023-10-14T01:01:46.165Z,0.00
2023-10-14T01:02:46.115Z,0.00
2023-10-14T01:03:46.120Z,0.00
2023-10-14T01:04:46.093Z,0.00
2023-10-14T01:05:46.117Z,0.00
2023-10-14T01:06:46.095Z,0.00
2023-10-14T01:07:46.064Z,0.00
2023-10-14T01:08:46.053Z,0.00
2023-10-14T01:09:46.070Z,0.00
2023-10-14T01:10:46.030Z,0.00
2023-10-14T01:11:46.025Z,0.00
2023-10-14T01:12:46.585Z,0.00
2023-10-14T01:13:46.001Z,0.00
2023-10-14T01:14:46.137Z,0.00
2023-10-14T01:15:45.987Z,0.00
2023-10-14T01:16:46.675Z,0.00
2023-10-14T01:17:46.016Z,0.00
2023-10-14T01:18:45.951Z,0.00
2023-10-14T01:19:45.936Z,0.00
2023-10-14T01:20:45.931Z,0.00
2023-10-14T01:21:45.976Z,0.00
2023-10-14T01:22:45.906Z,0.00
2023-10-14T01:23:45.897Z,0.00
2023-10-14T01:24:45.912Z,0.00
2023-10-14T01:25:45.877Z,0.00
2023-10-14T01:26:45.894Z,0.00
2023-10-14T01:27:45.937Z,0.00
2023-10-14T01:28:45.851Z,0.00
2023-10-14T01:29:45.892Z,0.00
2023-10-14T01:30:45.863Z,0.00
2023-10-14T01:31:45.882Z,0.00
2023-10-14T01:32:45.949Z,0.00
2023-10-14T01:33:45.902Z,0.00
2023-10-14T01:34:45.786Z,0.00
2023-10-14T01:35:45.775Z,0.00
2023-10-14T01:36:45.801Z,0.00
2023-10-14T01:37:45.759Z,0.00
2023-10-14T01:38:45.749Z,0.00
2023-10-14T01:39:45.766Z,0.00
2023-10-14T01:40:45.725Z,0.00
2023-10-14T01:41:45.714Z,0.00
2023-10-14T01:42:45.741Z,0.00
2023-10-14T01:43:45.745Z,0.00
2023-10-14T01:44:45.691Z,0.00
2023-10-14T01:45:45.757Z,0.00
2023-10-14T01:46:45.876Z,0.00
2023-10-14T01:47:45.708Z,0.00
2023-10-14T01:48:45.753Z,0.00
2023-10-14T01:49:45.643Z,0.00
2023-10-14T01:50:45.640Z,0.00
2023-10-14T01:51:45.696Z,0.00
2023-10-14T01:52:45.607Z,0.00
2023-10-14T01:53:45.595Z,0.00
2023-10-14T01:54:45.619Z,0.00
2023-10-14T01:55:45.577Z,0.00
2023-10-14T01:56:45.564Z,0.00
2023-10-14T01:57:45.589Z,0.00
2023-10-14T01:58:45.646Z,0.00
2023-10-14T01:59:45.534Z,0.00
2023-10-14T02:00:45.547Z,0.00
2023-10-14T02:01:45.644Z,0.00
2023-10-14T02:02:45.699Z,0.00
2023-10-14T02:03:46.027Z,0.00
2023-10-14T02:04:45.625Z,0.00
2023-10-14T02:05:45.805Z,0.00
2023-10-14T02:06:45.495Z,0.00
2023-10-14T02:07:45.455Z,0.00
2023-10-14T02:08:45.445Z,0.00
2023-10-14T02:09:45.456Z,0.00
2023-10-14T02:10:45.423Z,0.00
2023-10-14T02:11:45.412Z,0.00
2023-10-14T02:12:45.456Z,0.00
2023-10-14T02:13:45.399Z,0.00
2023-10-14T02:14:45.393Z,0.00
2023-10-14T02:15:45.470Z,0.00
2023-10-14T02:16:45.507Z,0.00
2023-10-14T02:17:45.376Z,0.00
2023-10-14T02:18:45.342Z,0.00
2023-10-14T02:19:45.332Z,0.00
2023-10-14T02:20:45.318Z,0.00
2023-10-14T02:21:45.350Z,0.00
2023-10-14T02:22:45.298Z,0.00
2023-10-14T02:23:45.307Z,0.00
2023-10-14T02:24:45.360Z,0.00
2023-10-14T02:25:45.273Z,0.00
2023-10-14T02:26:45.273Z,0.00
2023-10-14T02:27:45.298Z,0.00
2023-10-14T02:28:45.244Z,0.00
2023-10-14T02:29:45.240Z,0.00
2023-10-14T02:30:45.236Z,0.00
2023-10-14T02:31:45.330Z,0.00
2023-10-14T02:32:45.231Z,0.00
2023-10-14T02:33:45.237Z,0.00
2023-10-14T02:34:45.174Z,0.00
2023-10-14T02:35:45.174Z,0.00
2023-10-14T02:36:45.182Z,0.00
2023-10-14T02:37:45.146Z,0.00
2023-10-14T02:38:45.136Z,0.00
2023-10-14T02:39:45.277Z,0.00
2023-10-14T02:40:45.114Z,0.00
2023-10-14T02:41:45.121Z,0.00
2023-10-14T02:42:45.156Z,0.00
2023-10-14T02:43:45.088Z,0.00
2023-10-14T02:44:45.083Z,0.00
2023-10-14T02:45:45.097Z,0.00
2023-10-14T02:46:45.116Z,0.00
2023-10-14T02:47:45.078Z,0.00
2023-10-14T02:48:45.056Z,0.00
2023-10-14T02:49:45.024Z,0.00
2023-10-14T02:50:45.028Z,0.00
2023-10-14T02:51:45.044Z,0.00
2023-10-14T02:52:44.993Z,0.00
2023-10-14T02:53:44.984Z,0.00
2023-10-14T02:54:45.004Z,0.00
2023-10-14T02:55:44.986Z,0.00
2023-10-14T02:56:46.842Z,0.00
2023-10-14T02:57:44.971Z,0.00
2023-10-14T02:58:44.936Z,0.00
2023-10-14T02:59:45.178Z,0.00
2023-10-14T03:00:44.997Z,0.00
2023-10-14T03:01:44.978Z,0.00
2023-10-14T03:02:45.015Z,0.00
2023-10-14T03:03:44.945Z,0.00
2023-10-14T03:04:44.873Z,0.00
2023-10-14T03:05:44.868Z,0.00
2023-10-14T03:06:44.878Z,0.00
2023-10-14T03:07:44.848Z,0.00
2023-10-14T03:08:44.829Z,0.00
2023-10-14T03:09:44.826Z,0.00
2023-10-14T03:10:44.881Z,0.00
2023-10-14T03:11:44.810Z,0.00
2023-10-14T03:12:44.820Z,0.00
2023-10-14T03:13:44.792Z,0.00
2023-10-14T03:14:44.779Z,0.00
2023-10-14T03:15:44.763Z,0.00
2023-10-14T03:16:44.804Z,0.00
2023-10-14T03:17:44.748Z,0.00
2023-10-14T03:18:44.765Z,0.00
2023-10-14T03:19:44.716Z,0.00
2023-10-14T03:20:44.712Z,0.00
2023-10-14T03:21:44.734Z,0.00
2023-10-14T03:22:44.693Z,0.00
2023-10-14T03:23:44.676Z,0.00
2023-10-14T03:24:44.728Z,0.00
2023-10-14T03:25:44.650Z,0.00
2023-10-14T03:26:44.646Z,0.00
2023-10-14T03:27:44.644Z,0.00
2023-10-14T03:28:44.668Z,0.00
2023-10-14T03:29:44.609Z,0.00
2023-10-14T03:30:44.683Z,0.00
2023-10-14T03:31:44.748Z,0.00
2023-10-14T03:32:44.603Z,0.00
2023-10-14T03:33:45.160Z,0.00
2023-10-14T03:34:44.560Z,0.00
2023-10-14T03:35:44.696Z,0.00
2023-10-14T03:36:44.544Z,0.00
2023-10-14T03:37:44.533Z,0.00
2023-10-14T03:38:44.518Z,0.00
2023-10-14T03:39:44.533Z,0.00
2023-10-14T03:40:44.534Z,0.00
2023-10-14T03:41:44.490Z,0.00
2023-10-14T03:42:44.497Z,0.00
2023-10-14T03:43:44.460Z,0.00
2023-10-14T03:44:44.460Z,0.00
2023-10-14T03:45:44.463Z,0.00
2023-10-14T03:46:44.653Z,0.00
2023-10-14T03:47:44.444Z,0.00
2023-10-14T03:48:44.430Z,0.00
2023-10-14T03:49:44.427Z,0.00
2023-10-14T03:50:44.394Z,0.00
2023-10-14T03:51:44.422Z,0.00
2023-10-14T03:52:44.368Z,0.00
2023-10-14T03:53:44.356Z,0.00
2023-10-14T03:54:44.367Z,0.00
2023-10-14T03:55:44.332Z,0.00
2023-10-14T03:56:44.326Z,0.00
2023-10-14T03:57:44.332Z,0.00
2023-10-14T03:58:44.300Z,0.00
2023-10-14T03:59:44.317Z,0.00
2023-10-14T04:00:44.310Z,0.00
2023-10-14T04:01:44.308Z,0.00
2023-10-14T04:02:44.285Z,0.00
2023-10-14T04:03:44.294Z,0.00
2023-10-14T04:04:44.367Z,0.00
2023-10-14T04:05:44.222Z,0.00
2023-10-14T04:06:44.364Z,0.00
2023-10-14T04:07:44.200Z,0.00
2023-10-14T04:08:44.189Z,0.00
2023-10-14T04:09:44.296Z,0.00
2023-10-14T04:10:44.165Z,0.00
2023-10-14T04:11:44.156Z,0.00
2023-10-14T04:12:44.151Z,0.00
2023-10-14T04:13:44.125Z,0.00
2023-10-14T04:14:44.117Z,0.00
2023-10-14T04:15:44.124Z,0.00
2023-10-14T04:16:44.092Z,0.00
2023-10-14T04:17:44.110Z,0.00
2023-10-14T04:18:44.125Z,0.00
2023-10-14T04:19:44.137Z,0.00
2023-10-14T04:20:44.051Z,0.00
2023-10-14T04:21:44.046Z,0.00
2023-10-14T04:22:44.032Z,0.00
2023-10-14T04:23:44.014Z,0.00
2023-10-14T04:24:44.014Z,0.00
2023-10-14T04:25:44.247Z,0.00
2023-10-14T04:26:43.995Z,0.00
2023-10-14T04:27:43.986Z,0.00
2023-10-14T04:28:43.968Z,0.00
2023-10-14T04:29:43.941Z,0.00
2023-10-14T04:30:44.239Z,0.00
2023-10-14T04:31:44.014Z,0.00
2023-10-14T04:32:43.966Z,0.00
2023-10-14T04:33:43.922Z,0.00
2023-10-14T04:34:43.890Z,0.00
2023-10-14T04:35:43.904Z,0.00
2023-10-14T04:36:43.934Z,0.00
2023-10-14T04:37:43.867Z,0.00
2023-10-14T04:38:43.991Z,0.00
2023-10-14T04:39:43.913Z,0.00
2023-10-14T04:40:43.808Z,0.00
2023-10-14T04:41:43.994Z,0.00
2023-10-14T04:42:43.878Z,0.00
2023-10-14T04:43:43.773Z,0.00
2023-10-14T04:44:43.764Z,0.00
2023-10-14T04:45:43.806Z,0.00
2023-10-14T04:46:43.848Z,0.00
2023-10-14T04:47:43.862Z,0.00
2023-10-14T04:48:43.756Z,0.00
2023-10-14T04:49:43.749Z,0.00
2023-10-14T04:50:43.693Z,0.00
2023-10-14T04:51:43.702Z,0.00
2023-10-14T04:52:43.682Z,0.00
2023-10-14T04:53:43.651Z,0.00
2023-10-14T04:54:43.664Z,0.00
2023-10-14T04:55:43.627Z,0.00
2023-10-14T04:56:43.619Z,0.00
2023-10-14T04:57:43.643Z,0.00
2023-10-14T04:58:43.624Z,0.00
2023-10-14T04:59:43.659Z,0.00
2023-10-14T05:00:43.893Z,0.00
2023-10-14T05:01:43.904Z,0.00
2023-10-14T05:02:43.649Z,0.00
2023-10-14T05:03:43.621Z,0.00
2023-10-14T05:04:43.558Z,0.00
2023-10-14T05:05:43.706Z,0.00
2023-10-14T05:06:43.665Z,0.00
2023-10-14T05:07:43.493Z,0.00
2023-10-14T05:08:43.484Z,0.00
2023-10-14T05:09:43.509Z,0.00
2023-10-14T05:10:43.476Z,0.00
2023-10-14T05:11:43.443Z,0.00
2023-10-14T05:12:43.506Z,0.00
2023-10-14T05:13:43.427Z,0.00
2023-10-14T05:14:43.437Z,0.00
2023-10-14T05:15:43.449Z,0.00
2023-10-14T05:16:43.432Z,0.00
2023-10-14T05:17:43.387Z,0.00
2023-10-14T05:18:43.381Z,0.00
2023-10-14T05:19:43.573Z,0.00
2023-10-14T05:20:43.363Z,0.00
2023-10-14T05:21:43.348Z,0.00
2023-10-14T05:22:43.319Z,0.00
2023-10-14T05:23:43.352Z,0.00
2023-10-14T05:24:43.331Z,0.00
2023-10-14T05:25:43.278Z,0.00
2023-10-14T05:26:43.317Z,0.00
2023-10-14T05:27:43.316Z,0.00
2023-10-14T05:28:43.248Z,0.00
2023-10-14T05:29:43.228Z,0.00
2023-10-14T05:30:43.273Z,0.00
2023-10-14T05:31:43.366Z,0.00
2023-10-14T05:32:43.236Z,0.00
2023-10-14T05:33:43.237Z,0.00
2023-10-14T05:34:43.206Z,0.00
2023-10-14T05:35:43.161Z,0.00
2023-10-14T05:36:43.149Z,0.00
2023-10-14T05:37:43.192Z,0.00
2023-10-14T05:38:43.125Z,0.00
2023-10-14T05:39:43.168Z,0.00
2023-10-14T05:40:43.120Z,0.00
2023-10-14T05:41:43.081Z,0.00
2023-10-14T05:42:43.080Z,0.00
2023-10-14T05:43:43.110Z,0.00
2023-10-14T05:44:43.059Z,0.00
2023-10-14T05:45:43.036Z,0.00
2023-10-14T05:46:43.110Z,0.00
2023-10-14T05:47:43.167Z,0.00
2023-10-14T05:48:43.046Z,0.00
2023-10-14T05:49:43.098Z,0.00
2023-10-14T05:50:42.993Z,5.63
2023-10-14T05:51:43.021Z,0.00
2023-10-14T05:52:42.964Z,5.63
2023-10-14T05:53:42.981Z,5.63
2023-10-14T05:54:42.928Z,5.63
2023-10-14T05:55:42.921Z,0.00
2023-10-14T05:56:42.945Z,0.00
2023-10-14T05:57:42.895Z,5.63
2023-10-14T05:58:42.886Z,5.63
2023-10-14T05:59:42.875Z,5.63
2023-10-14T06:00:42.860Z,5.63
2023-10-14T06:01:42.848Z,5.63
2023-10-14T06:02:42.905Z,5.63
2023-10-14T06:03:42.902Z,5.63
2023-10-14T06:04:42.925Z,5.63
2023-10-14T06:05:42.798Z,11.25
2023-10-14T06:06:42.785Z,11.25
2023-10-14T06:07:42.770Z,16.88
2023-10-14T06:08:42.775Z,16.88
2023-10-14T06:09:42.750Z,11.25
2023-10-14T06:10:42.730Z,11.25
2023-10-14T06:11:42.725Z,16.88
2023-10-14T06:12:42.708Z,16.88
2023-10-14T06:13:42.713Z,11.25
2023-10-14T06:14:42.688Z,11.25
2023-10-14T06:15:42.684Z,11.25
2023-10-14T06:16:42.683Z,11.25
2023-10-14T06:17:42.694Z,11.25
2023-10-14T06:18:42.637Z,11.25
2023-10-14T06:19:42.621Z,11.25
2023-10-14T06:20:42.607Z,11.25
2023-10-14T06:21:42.685Z,5.63
2023-10-14T06:22:42.585Z,5.63
2023-10-14T06:23:42.572Z,5.63
2023-10-14T06:24:42.563Z,5.63
2023-10-14T06:25:42.551Z,5.63
2023-10-14T06:26:42.531Z,5.63
2023-10-14T06:27:42.540Z,11.25
2023-10-14T06:28:42.510Z,16.88
2023-10-14T06:29:42.551Z,22.50
2023-10-14T06:30:42.505Z,28.13
2023-10-14T06:31:42.508Z,28.13
2023-10-14T06:32:42.698Z,33.75
2023-10-14T06:33:42.442Z,50.63
2023-10-14T06:34:42.458Z,61.88
2023-10-14T06:35:45.372Z,50.63
2023-10-14T06:36:42.408Z,33.75
2023-10-14T06:37:42.478Z,28.13
2023-10-14T06:38:42.549Z,28.13
2023-10-14T06:41:41.746Z,28.13
2023-10-14T06:45:46.971Z,33.75
2023-10-14T06:46:47.478Z,33.75
2023-10-14T06:47:49.824Z,33.75
2023-10-14T06:48:48.948Z,33.75
2023-10-14T06:51:15.404Z,33.75
2023-10-14T06:51:46.646Z,33.75
2023-10-14T06:52:46.678Z,33.75
2023-10-14T06:53:46.477Z,39.38
2023-10-14T06:54:46.578Z,45.00
2023-10-14T06:55:46.453Z,56.25
2023-10-14T06:56:46.507Z,67.50
2023-10-14T06:59:53.652Z,50.63
2023-10-14T07:00:49.482Z,45.00
2023-10-14T07:01:48.953Z,56.25
2023-10-14T07:02:49.084Z,50.63
2023-10-14T07:03:46.790Z,56.25
2023-10-14T07:04:49.167Z,67.50
2023-10-14T07:05:50.986Z,84.38
2023-10-14T07:06:48.700Z,78.75
2023-10-14T07:08:47.166Z,61.88
2023-10-14T07:09:47.728Z,67.50
2023-10-14T07:10:48.569Z,61.88
2023-10-14T07:11:48.616Z,50.63
2023-10-14T07:12:48.213Z,67.50
2023-10-14T07:13:46.322Z,78.75
2023-10-14T07:14:46.631Z,90.00
2023-10-14T07:15:46.269Z,112.50
2023-10-14T07:16:46.255Z,129.38
2023-10-14T07:17:46.212Z,146.25
2023-10-14T07:18:46.179Z,168.75
2023-10-14T07:19:46.164Z,196.88
2023-10-14T07:20:46.130Z,191.25
2023-10-14T07:21:46.119Z,168.75
2023-10-14T07:22:46.097Z,146.25
2023-10-14T07:23:46.218Z,146.25
2023-10-14T07:24:46.134Z,163.13
2023-10-14T07:25:46.078Z,180.00
2023-10-14T07:26:46.057Z,202.50
2023-10-14T07:27:48.649Z,281.25
2023-10-14T07:28:46.042Z,365.63
2023-10-14T07:29:46.016Z,388.13
2023-10-14T07:30:45.996Z,388.13
2023-10-14T07:31:46.189Z,382.50
2023-10-14T07:32:46.056Z,388.13
2023-10-14T07:33:45.980Z,393.75
2023-10-14T07:34:45.945Z,405.00
2023-10-14T07:35:45.935Z,416.25
2023-10-14T07:36:45.988Z,405.00
2023-10-14T07:37:45.919Z,348.75
2023-10-14T07:38:46.030Z,326.25
2023-10-14T07:39:45.946Z,354.38
2023-10-14T07:40:45.877Z,382.50
2023-10-14T07:41:45.938Z,388.13
2023-10-14T07:42:45.883Z,388.13
2023-10-14T07:43:45.839Z,410.63
2023-10-14T07:44:46.829Z,483.75
2023-10-14T07:45:45.839Z,506.25
2023-10-14T07:46:45.918Z,545.63
2023-10-14T07:47:45.898Z,556.88
2023-10-14T07:48:45.781Z,590.63
2023-10-14T07:49:45.787Z,618.75
2023-10-14T07:50:45.801Z,573.75
2023-10-14T07:51:45.792Z,630.00
2023-10-14T07:52:45.755Z,551.25
2023-10-14T07:53:45.755Z,556.88
2023-10-14T07:54:45.722Z,613.13
2023-10-14T07:55:45.704Z,568.13
2023-10-14T07:56:45.693Z,781.88
2023-10-14T07:57:45.742Z,371.25
2023-10-14T07:58:46.282Z,348.75
2023-10-14T07:59:45.663Z,478.13
2023-10-14T08:00:45.664Z,303.75
2023-10-14T08:01:45.701Z,241.88
2023-10-14T08:02:45.687Z,416.25
2023-10-14T08:03:45.649Z,393.75
2023-10-14T08:04:45.650Z,388.13
2023-10-14T08:05:45.598Z,326.25
2023-10-14T08:06:45.604Z,393.75
2023-10-14T08:07:45.580Z,326.25
2023-10-14T08:08:45.606Z,500.63
2023-10-14T08:09:45.591Z,528.75
2023-10-14T08:10:45.556Z,500.63
2023-10-14T08:11:45.551Z,500.63
2023-10-14T08:12:45.550Z,466.88
2023-10-14T08:13:45.555Z,438.75
2023-10-14T08:14:45.512Z,405.00
2023-10-14T08:15:45.741Z,461.25
2023-10-14T08:16:45.567Z,534.38
2023-10-14T08:17:45.476Z,562.50
2023-10-14T08:18:45.539Z,495.00
2023-10-14T08:19:45.517Z,562.50
2023-10-14T08:20:45.447Z,641.25
2023-10-14T08:21:45.453Z,652.50
2023-10-14T08:22:45.406Z,753.75
2023-10-14T08:23:45.395Z,691.88
2023-10-14T08:24:45.390Z,579.38
2023-10-14T08:25:45.381Z,776.25
2023-10-14T08:26:45.398Z,815.63
2023-10-14T08:27:45.465Z,759.38
2023-10-14T08:28:45.349Z,759.38
2023-10-14T08:29:45.355Z,703.13
2023-10-14T08:30:45.330Z,826.88
2023-10-14T08:31:45.348Z,866.25
2023-10-14T08:32:45.388Z,911.25
2023-10-14T08:33:47.344Z,939.38
2023-10-14T08:34:45.328Z,416.25
2023-10-14T08:35:45.274Z,427.50
2023-10-14T08:36:45.270Z,331.88
2023-10-14T08:37:45.263Z,804.38
2023-10-14T08:38:45.284Z,815.63
2023-10-14T08:39:45.355Z,815.63
2023-10-14T08:40:45.347Z,815.63
2023-10-14T08:41:45.227Z,804.38
2023-10-14T08:42:45.236Z,843.75
2023-10-14T08:43:45.234Z,933.75
2023-10-14T08:44:45.376Z,945.00
2023-10-14T08:45:45.279Z,843.75
2023-10-14T08:46:45.364Z,770.63
2023-10-14T08:47:45.259Z,765.00
2023-10-14T08:48:45.172Z,781.88
2023-10-14T08:49:45.197Z,838.13
2023-10-14T08:50:45.185Z,894.38
2023-10-14T08:51:54.155Z,736.88
2023-10-14T08:52:45.190Z,759.38
2023-10-14T08:53:45.141Z,781.88
2023-10-14T08:54:45.161Z,894.38
2023-10-14T08:55:45.240Z,1170.00
2023-10-14T08:56:45.122Z,680.63
2023-10-14T08:57:45.889Z,1282.50
2023-10-14T08:58:45.194Z,1237.50
2023-10-14T08:59:45.104Z,753.75
2023-10-14T09:00:45.366Z,573.75
2023-10-14T09:01:45.517Z,635.63
2023-10-14T09:02:45.151Z,1423.13
2023-10-14T09:03:45.150Z,1035.00
2023-10-14T09:04:45.095Z,838.13
2023-10-14T09:05:45.091Z,658.13
2023-10-14T09:06:45.160Z,1023.75
2023-10-14T09:07:45.130Z,455.63
2023-10-14T09:08:45.084Z,438.75
2023-10-14T09:09:45.162Z,956.25
2023-10-14T09:10:45.135Z,579.38
2023-10-14T09:11:45.034Z,945.00
2023-10-14T09:12:45.037Z,725.63
2023-10-14T09:13:45.104Z,888.75
2023-10-14T09:14:45.094Z,703.13
2023-10-14T09:15:45.113Z,1068.75
2023-10-14T09:16:45.319Z,1248.75
2023-10-14T09:17:45.124Z,871.88
2023-10-14T09:18:45.066Z,736.88
2023-10-14T09:19:45.071Z,624.38
2023-10-14T09:20:45.071Z,545.63
2023-10-14T09:21:45.331Z,573.75
2023-10-14T09:22:45.089Z,630.00
2023-10-14T09:23:45.009Z,894.38
2023-10-14T09:24:45.278Z,950.63
2023-10-14T09:25:44.975Z,883.13
2023-10-14T09:26:45.265Z,742.50
2023-10-14T09:27:45.088Z,652.50
2023-10-14T09:28:44.993Z,635.63
2023-10-14T09:29:44.933Z,714.38
2023-10-14T09:30:45.855Z,652.50
2023-10-14T09:31:45.025Z,725.63
2023-10-14T09:32:45.081Z,928.13
2023-10-14T09:33:44.964Z,916.88
2023-10-14T09:34:44.935Z,810.00
2023-10-14T09:35:44.878Z,855.00
2023-10-14T09:36:44.924Z,731.25
2023-10-14T09:37:44.955Z,708.75
2023-10-14T09:38:44.909Z,843.75
2023-10-14T09:39:44.927Z,748.13
2023-10-14T09:40:44.851Z,495.00
2023-10-14T09:41:44.836Z,506.25
2023-10-14T09:42:44.828Z,838.13
2023-10-14T09:43:44.893Z,826.88
2023-10-14T09:44:44.854Z,652.50
2023-10-14T09:45:44.839Z,697.50
2023-10-14T09:46:44.873Z,725.63
2023-10-14T09:47:44.892Z,641.25
2023-10-14T09:48:44.944Z,714.38
2023-10-14T09:49:45.033Z,911.25
2023-10-14T09:50:44.926Z,1057.50
2023-10-14T09:51:44.876Z,1198.13
2023-10-14T09:52:44.791Z,1462.50
2023-10-14T09:53:44.805Z,1614.38
2023-10-14T09:54:44.821Z,1299.38
2023-10-14T09:55:44.758Z,1130.63
2023-10-14T09:56:44.762Z,821.25
2023-10-14T09:57:44.745Z,691.88
2023-10-14T09:58:44.726Z,624.38
2023-10-14T09:59:44.733Z,663.75
2023-10-14T10:00:44.765Z,781.88
2023-10-14T10:01:44.867Z,815.63
2023-10-14T10:02:44.904Z,815.63
2023-10-14T10:03:44.919Z,916.88
2023-10-14T10:04:47.507Z,956.25
2023-10-14T10:05:44.674Z,1507.50
2023-10-14T10:06:44.638Z,877.50
2023-10-14T10:07:44.655Z,742.50
2023-10-14T10:08:44.650Z,883.13
2023-10-14T10:09:44.616Z,736.88
2023-10-14T10:10:44.770Z,579.38
2023-10-14T10:11:44.612Z,545.63
2023-10-14T10:12:44.642Z,697.50
2023-10-14T10:13:44.630Z,804.38
2023-10-14T10:14:44.727Z,753.75
2023-10-14T10:15:44.651Z,765.00
2023-10-14T10:16:44.587Z,781.88
2023-10-14T10:17:44.609Z,928.13
2023-10-14T10:18:44.633Z,877.50
2023-10-14T10:19:44.584Z,680.63
2023-10-14T10:20:44.590Z,618.75
2023-10-14T10:21:44.694Z,770.63
2023-10-14T10:22:44.612Z,849.38
2023-10-14T10:23:44.529Z,995.63
2023-10-14T10:24:44.751Z,956.25
2023-10-14T10:25:44.499Z,973.13
2023-10-14T10:26:45.398Z,1181.25
2023-10-14T10:27:44.516Z,1130.63
2023-10-14T10:28:44.536Z,883.13
2023-10-14T10:29:44.460Z,905.63
2023-10-14T10:30:44.563Z,922.50
2023-10-14T10:31:44.596Z,826.88
2023-10-14T10:32:44.556Z,506.25
2023-10-14T10:33:44.606Z,421.88
2023-10-14T10:34:47.233Z,551.25
2023-10-14T10:35:44.466Z,528.75
2023-10-14T10:36:44.683Z,489.38
2023-10-14T10:37:44.387Z,540.00
2023-10-14T10:38:45.521Z,646.88
2023-10-14T10:39:44.477Z,939.38
2023-10-14T10:40:44.741Z,1125.00
2023-10-14T10:41:44.411Z,945.00
2023-10-14T10:42:46.968Z,635.63
2023-10-14T10:43:45.360Z,669.38
2023-10-14T10:44:44.343Z,731.25
2023-10-14T10:45:44.837Z,703.13
2023-10-14T10:46:44.474Z,646.88
2023-10-14T10:47:44.355Z,697.50
2023-10-14T10:48:44.361Z,804.38
2023-10-14T10:49:44.364Z,675.00
2023-10-14T10:50:44.736Z,596.25
2023-10-14T10:51:44.284Z,663.75
2023-10-14T10:52:44.395Z,815.63
2023-10-14T10:53:44.295Z,871.88
2023-10-14T10:54:44.320Z,950.63
2023-10-14T10:55:44.257Z,967.50
2023-10-14T10:56:53.862Z,866.25
2023-10-14T11:02:15.067Z,804.38
2023-10-14T11:03:15.886Z,843.75
2023-10-14T11:04:14.822Z,1096.88
2023-10-14T11:05:14.893Z,843.75
2023-10-14T11:06:14.887Z,877.50
2023-10-14T11:07:14.979Z,1108.13
2023-10-14T11:08:14.808Z,607.50
2023-10-14T11:12:32.681Z,866.25
2023-10-14T11:20:45.962Z,967.50
2023-10-14T11:21:46.223Z,961.88
2023-10-14T11:22:45.931Z,956.25
2023-10-14T11:23:45.882Z,950.63
2023-10-14T11:24:45.943Z,995.63
2023-10-14T11:25:45.928Z,973.13
2023-10-14T11:26:46.011Z,1113.75
2023-10-14T11:27:45.982Z,1170.00
2023-10-14T11:28:45.900Z,556.88
2023-10-14T11:35:41.815Z,511.88
2023-10-14T11:36:44.159Z,517.50
2023-10-14T11:37:51.112Z,421.88
2023-10-14T11:38:41.748Z,444.38
2023-10-14T11:39:42.175Z,438.75
2023-10-14T11:40:41.848Z,421.88
2023-10-14T11:41:41.733Z,995.63
2023-10-14T11:42:41.636Z,916.88
2023-10-14T11:43:41.719Z,376.88
2023-10-14T11:44:41.617Z,438.75
2023-10-14T11:45:41.763Z,821.25
2023-10-14T11:46:41.842Z,393.75
2023-10-14T11:47:41.819Z,495.00
2023-10-14T11:48:41.777Z,956.25
2023-10-14T11:49:41.722Z,461.25
2023-10-14T11:50:41.706Z,523.13
2023-10-14T11:51:41.701Z,956.25
2023-10-14T11:52:41.605Z,939.38
2023-10-14T11:53:41.623Z,945.00
2023-10-14T11:54:41.572Z,973.13
2023-10-14T11:55:41.814Z,1006.88
2023-10-14T11:56:41.633Z,1023.75
2023-10-14T11:57:41.624Z,1029.38
2023-10-14T11:58:41.758Z,1074.38
2023-10-14T11:59:41.698Z,956.25
2023-10-14T12:00:41.658Z,939.38
2023-10-14T12:01:41.620Z,1029.38
2023-10-14T12:02:41.767Z,1040.63
2023-10-14T12:03:41.866Z,1063.13
2023-10-14T12:04:41.729Z,1012.50
2023-10-14T12:05:41.621Z,911.25
2023-10-14T12:06:41.684Z,956.25
2023-10-14T12:07:41.571Z,877.50
2023-10-14T12:15:56.006Z,928.13
2023-10-14T12:16:55.097Z,967.50
2023-10-14T12:17:55.099Z,984.38
2023-10-14T12:18:55.027Z,950.63
2023-10-14T12:19:54.969Z,916.88
2023-10-14T12:20:54.964Z,1035.00
2023-10-14T12:21:55.156Z,973.13
2023-10-14T12:22:55.194Z,860.63
2023-10-14T12:23:54.931Z,781.88
2023-10-14T12:24:55.081Z,843.75
2023-10-14T12:25:55.017Z,787.50
2023-10-14T12:26:54.914Z,731.25
2023-10-14T12:27:55.051Z,579.38
2023-10-14T12:28:56.974Z,646.88
2023-10-14T12:29:54.939Z,680.63
2023-10-14T12:30:54.972Z,444.38
2023-10-14T12:32:07.632Z,416.25
2023-10-14T12:32:54.974Z,466.88
2023-10-14T12:33:54.848Z,871.88
2023-10-14T12:34:54.970Z,995.63
2023-10-14T12:35:54.941Z,978.75
2023-10-14T12:36:54.962Z,939.38
2023-10-14T12:37:54.874Z,956.25
2023-10-14T12:38:54.924Z,905.63
2023-10-14T12:39:54.887Z,489.38
2023-10-14T12:40:54.930Z,556.88
2023-10-14T12:41:54.877Z,680.63
2023-10-14T12:42:54.967Z,939.38
2023-10-14T12:43:54.833Z,967.50
2023-10-14T12:44:54.860Z,990.00
2023-10-14T12:45:54.789Z,1051.88
2023-10-14T12:46:54.942Z,1080.00
2023-10-14T12:47:54.830Z,1029.38
2023-10-14T12:48:54.913Z,1001.25
2023-10-14T12:49:54.798Z,1012.50
2023-10-14T12:50:54.840Z,990.00
2023-10-14T12:51:54.829Z,956.25
2023-10-14T12:52:54.761Z,911.25
2023-10-14T12:53:54.820Z,765.00
2023-10-14T12:54:54.755Z,646.88
2023-10-14T12:55:54.711Z,596.25
2023-10-14T12:56:54.799Z,579.38
2023-10-14T12:57:54.782Z,556.88
2023-10-14T12:58:54.810Z,551.25
2023-10-14T12:59:54.716Z,528.75
2023-10-14T13:00:54.828Z,483.75
2023-10-14T13:01:54.798Z,472.50
2023-10-14T13:02:54.880Z,461.25
2023-10-14T13:03:54.919Z,483.75
2023-10-14T13:04:54.788Z,534.38
2023-10-14T13:05:54.716Z,556.88
2023-10-14T13:06:54.703Z,545.63
2023-10-14T13:07:54.713Z,354.38
2023-10-14T13:08:54.638Z,315.00
2023-10-14T13:09:54.665Z,427.50
2023-10-14T13:10:54.765Z,320.63
2023-10-14T13:11:54.602Z,286.88
2023-10-14T13:12:54.618Z,410.63
2023-10-14T13:13:54.608Z,393.75
2023-10-14T13:14:54.580Z,270.00
2023-10-14T13:15:54.581Z,270.00
2023-10-14T13:16:54.715Z,393.75
2023-10-14T13:17:54.590Z,388.13
2023-10-14T13:18:54.587Z,382.50
2023-10-14T13:19:54.559Z,376.88
2023-10-14T13:20:54.577Z,371.25
2023-10-14T13:21:54.558Z,326.25
2023-10-14T13:22:54.522Z,264.38
2023-10-14T13:23:54.586Z,360.00
2023-10-14T13:24:54.504Z,354.38
2023-10-14T13:25:54.505Z,354.38
2023-10-14T13:26:54.526Z,348.75
2023-10-14T13:27:54.515Z,348.75
2023-10-14T13:28:54.474Z,343.13
2023-10-14T13:29:54.463Z,343.13